Wayne, Montana
Current Conditions -  °F | °C
As of 4:56 PM on Saturday 25 Oct 2014 (Local Time) from KGFA Reporting Station
Clear Clear  
Wind Chill: 55°   Ceiling: Unl
Heat Index: 55°   Visibility: 10mi
Dew Point: 42°   Wind: 3mph
Humidity: 60%   Direction: 330°NNW
Pressure: 29.73"   Gusts: NA
Location:  47.3298°N, 110.893°W
Report Text: KGFA 252256Z AUTO 33003KT 10SM CLR 13/05 A2973 RMK AO2 SLPNO T01290053
Loading
Personal Weather Stations






























Interactive Weather Map
Tropical Storm Tracking
New forecast layout! Learn more

10-Day Weather Forecast

Advertisements
Track Severe Weather on mobile